Flight Track Log - Related Links

Times and Time Zones

All times are in EST time to prevent confusion due to time zone crossing. See the UPS1301 flight status page for this flight to view local times or setup timezone preferences in your user account.

Time Position Orientation Groundspeed Altitude Reporting Facility
EST Latitude Longitude Course Direction KTS MPH feet Rate Location/Type
Mon 10:52:50 PM 33.6500 -84.4500 323° Northwest 167 192 2,600  Level Atlanta TRACON
Mon 10:53:44 PM 33.6667 -84.5000 292° West 210 242 5,000 2,714 Climbing Atlanta TRACON
Mon 10:58:00 PM 34.0726 -84.5471 323° Northwest  Level Estimated
Mon 10:59:28 PM 34.1302 -84.5896 292° West 370 426 20,600  Level FlightAware ADS-B
Mon 10:59:58 PM 34.1823 -84.5915 358° North 369 425 21,900 2,656 Climbing FlightAware ADS-B
Mon 11:00:29 PM 34.2345 -84.5933 358° North 367 422 23,300 2,690 Climbing FlightAware ADS-B
Mon 11:00:56 PM 34.2818 -84.5965 357° North 363 418 24,500 2,542 Climbing FlightAware ADS-B
Mon 11:01:28 PM 34.3340 -84.6071 350° North 357 411 25,800 2,438 Climbing FlightAware ADS-B
Mon 11:02:00 PM 34.3863 -84.6200 348° North 355 409 27,100 1,833 Climbing FlightAware ADS-B
Mon 11:02:40 PM 34.4494 -84.6356 348° North 340 391 28,000 771 Climbing FlightAware ADS-B
Mon 11:03:10 PM 34.4978 -84.6477 348° North 368 423 28,000  Level FlightAware ADS-B
Mon 11:03:27 PM 34.5272 -84.6548 349° North 379 436 28,000  Level FlightAware ADS-B
Mon 11:03:58 PM 34.5812 -84.6637 352° North 393 452 28,000  Level FlightAware ADS-B
Mon 11:04:28 PM 34.6273 -84.6661 358° North 398 458 28,000  Level FlightAware ADS-B
Mon 11:04:58 PM 34.6932 -84.6746 354° North 397 457 28,000  Level FlightAware ADS-B
Mon 11:05:29 PM 34.7486 -84.6795 356° North 396 456 28,000  Level FlightAware ADS-B
Mon 11:06:05 PM 34.8144 -84.6854 356° North 394 453 28,000  Level FlightAware ADS-B
Mon 11:06:46 PM 34.8904 -84.6922 356° North 392 451 28,000  Level FlightAware ADS-B
Mon 11:07:16 PM 34.9450 -84.6972 356° North 391 450 28,000  Level FlightAware ADS-B
Mon 11:07:47 PM 34.9904 -84.6984 359° North 391 450 28,000  Level FlightAware ADS-B
Mon 11:08:20 PM 35.0611 -84.7077 354° North 391 450 28,000  Level FlightAware ADS-B
Mon 11:08:52 PM 35.1078 -84.7091 359° North 392 451 28,000  Level FlightAware ADS-B
Mon 11:09:29 PM 35.1763 -84.7153 356° North 391 450 28,000  Level FlightAware ADS-B
Mon 11:10:03 PM 35.2474 -84.7247 354° North 394 453 28,000  Level FlightAware ADS-B
Mon 11:10:33 PM 35.2935 -84.7256 359° North 396 456 28,000  Level FlightAware ADS-B
Mon 11:11:04 PM 35.3587 -84.7348 353° North 396 456 28,000  Level FlightAware ADS-B
Mon 11:11:35 PM 35.4174 -84.7403 356° North 397 457 28,000  Level FlightAware ADS-B
Mon 11:12:05 PM 35.4715 -84.7454 356° North 398 458 28,000  Level FlightAware ADS-B
Mon 11:12:35 PM 35.5172 -84.7460 359° North 397 457 28,000  Level FlightAware ADS-B
Mon 11:13:05 PM 35.5823 -84.7556 353° North 396 456 28,000  Level FlightAware ADS-B
Mon 11:13:42 PM 35.6391 -84.7568 359° North 394 453 28,000  Level FlightAware ADS-B
Mon 11:14:12 PM 35.7040 -84.7669 353° North 393 452 28,000  Level FlightAware ADS-B
Mon 11:14:43 PM 35.7606 -84.7723 356° North 393 452 28,000  Level FlightAware ADS-B
Mon 11:15:13 PM 35.8060 -84.7721 360° North 392 451 28,000  Level FlightAware ADS-B
Mon 11:15:44 PM 35.8720 -84.7825 353° North 390 449 28,000  Level FlightAware ADS-B
Mon 11:16:14 PM 35.9245 -84.7876 356° North 389 448 28,000  Level FlightAware ADS-B
Mon 11:16:47 PM 35.9839 -84.7935 355° North 390 449 28,000  Level FlightAware ADS-B
Mon 11:17:17 PM 36.0289 -84.7931 360° North 390 449 28,000  Level FlightAware ADS-B
Mon 11:17:47 PM 36.0945 -84.8045 352° North 392 451 28,000  Level FlightAware ADS-B
Mon 11:18:18 PM 36.1488 -84.8098 355° North 392 451 28,000  Level FlightAware ADS-B
Mon 11:18:52 PM 36.2004 -84.8092 North 391 450 28,000  Level FlightAware ADS-B
Mon 11:19:22 PM 36.2547 -84.8142 356° North 391 450 28,000  Level FlightAware ADS-B
Mon 11:19:52 PM 36.3089 -84.8191 356° North 390 449 28,000  Level FlightAware ADS-B
Mon 11:20:53 PM 36.4189 -84.8293 356° North 390 449 28,000 -624 Level FlightAware ADS-B
Mon 11:21:57 PM 36.5353 -84.8399 356° North 393 452 26,700 -1,311 Descending FlightAware ADS-B
Mon 11:22:52 PM 36.6464 -84.8572 353° North 394 453 25,400 -1,256 Descending FlightAware ADS-B
Mon 11:24:06 PM 36.7695 -84.8607 359° North 392 451 24,000 -808 Descending FlightAware ADS-B
Mon 11:24:36 PM 36.8246 -84.8656 356° North 392 451 24,000  Level FlightAware ADS-B
Mon 11:25:07 PM 36.8798 -84.8706 356° North 389 448 24,000  Level FlightAware ADS-B
Mon 11:25:37 PM 36.9324 -84.8751 356° North 371 427 24,000  Level FlightAware ADS-B
Mon 11:26:08 PM 36.9852 -84.8799 356° North 364 419 24,000  Level FlightAware ADS-B
Mon 11:26:38 PM 37.0363 -84.8849 356° North 362 417 24,000 -295 Level FlightAware ADS-B
Mon 11:27:09 PM 37.0876 -84.8899 356° North 361 415 23,700 -1,636 Descending FlightAware ADS-B
Mon 11:28:06 PM 37.1830 -84.8988 356° North 360 414 21,600 -2,200 Descending FlightAware ADS-B
Mon 11:28:39 PM 37.2369 -84.9040 356° North 352 405 20,400 -2,241 Descending FlightAware ADS-B
Mon 11:29:29 PM 37.3248 -84.9219 351° North 347 399 18,500 -2,037 Descending FlightAware ADS-B
Mon 11:30:28 PM 37.3997 -84.9289 351° North 348 400 16,700 -2,300 Descending Indianapolis Center
Mon 11:31:29 PM 37.5103 -84.9392 356° North 343 395 13,900 -2,115 Descending Indianapolis Center
Mon 11:32:30 PM 37.5847 -84.9461 356° North 285 328 12,400 -1,426 Descending Indianapolis Center
Mon 11:33:31 PM 37.6592 -84.9578 353° North 272 313 11,000 -1,488 Descending Indianapolis Center
Mon 11:34:31 PM 37.7025 -85.0242 310° West 248 285 9,400 -1,488 Descending Indianapolis Center
Mon 11:35:32 PM 37.7503 -85.0883 313° West 251 289 8,000 -689 Descending Indianapolis Center
Mon 11:36:33 PM 37.7950 -85.1522 312° West 243 280 8,000 -98 Level Indianapolis Center
Mon 11:37:34 PM 37.8431 -85.2181 313° West 244 281 7,800 -787 Descending Indianapolis Center
Mon 11:38:35 PM 37.8653 -85.3017 289° West 247 284 6,400 -984 Descending Indianapolis Center
Mon 11:39:36 PM 37.8864 -85.3858 288° West 249 287 5,800 -738 Descending Indianapolis Center
Mon 11:40:37 PM 37.9097 -85.4689 290° West 249 287 4,900 -836 Descending Indianapolis Center
Mon 11:41:38 PM 37.9297 -85.5422 289° West 250 288 4,100 -825 Descending Indianapolis Center
Mon 11:43:17 PM 37.9833 -85.6500 302° West 196 226 2,700 -466 Descending Louisville TRACON
Mon 11:45:17 PM 38.0667 -85.7167 328° Northwest 147 169 2,400 -400 Descending Louisville TRACON
Mon 11:47:47 PM 38.1500 -85.7333 351° North 103 119 900 -600 Descending Louisville TRACON
Mon 11:49:00 PM 38.1741 -85.7365 211° Southwest  Level Estimated

Login

Don't have an account? Register now (free) for customized features, flight alerts, and more!